createdAt,value
2018-10-03T00:00:27.923Z,8.40
2018-10-03T00:01:27.920Z,9.40
2018-10-03T00:02:27.916Z,10.30
2018-10-03T00:03:27.907Z,10.10
2018-10-03T00:04:27.901Z,8.10
2018-10-03T00:05:27.890Z,10.90
2018-10-03T00:06:27.885Z,9.80
2018-10-03T00:07:27.883Z,8.30
2018-10-03T00:08:27.874Z,8.60
2018-10-03T00:09:27.865Z,7.20
2018-10-03T00:10:27.859Z,11.10
2018-10-03T00:11:27.852Z,8.90
2018-10-03T00:12:27.847Z,10.70
2018-10-03T00:13:27.844Z,8.00
2018-10-03T00:14:27.841Z,8.80
2018-10-03T00:15:27.833Z,10.30
2018-10-03T00:16:27.826Z,9.70
2018-10-03T00:17:27.814Z,10.50
2018-10-03T00:18:27.810Z,10.40
2018-10-03T00:19:27.802Z,10.50
2018-10-03T00:20:27.795Z,10.60
2018-10-03T00:21:27.793Z,9.80
2018-10-03T00:22:27.788Z,8.40
2018-10-03T00:23:27.887Z,9.70
2018-10-03T00:24:27.771Z,10.00
2018-10-03T00:25:27.771Z,11.60
2018-10-03T00:26:27.765Z,9.60
2018-10-03T00:27:27.758Z,9.90
2018-10-03T00:28:27.750Z,11.00
2018-10-03T00:29:27.740Z,9.10
2018-10-03T00:30:27.738Z,7.90
2018-10-03T00:31:27.728Z,9.90
2018-10-03T00:32:27.722Z,8.10
2018-10-03T00:33:27.719Z,8.30
2018-10-03T00:34:27.717Z,9.80
2018-10-03T00:35:27.707Z,10.50
2018-10-03T00:36:27.700Z,8.00
2018-10-03T00:37:27.693Z,7.60
2018-10-03T00:38:27.686Z,8.40
2018-10-03T00:39:27.686Z,9.00
2018-10-03T00:40:27.676Z,8.70
2018-10-03T00:41:27.666Z,7.90
2018-10-03T00:42:27.660Z,8.10
2018-10-03T00:43:27.655Z,7.20
2018-10-03T00:44:27.648Z,8.20
2018-10-03T00:45:27.647Z,8.20
2018-10-03T00:46:27.642Z,9.00
2018-10-03T00:47:27.634Z,7.50
2018-10-03T00:48:27.629Z,9.10
2018-10-03T00:49:27.617Z,6.90
2018-10-03T00:50:27.612Z,8.70
2018-10-03T00:51:27.606Z,9.40
2018-10-03T00:52:27.599Z,8.20
2018-10-03T00:53:27.601Z,10.10
2018-10-03T00:54:27.593Z,9.50
2018-10-03T00:55:27.582Z,8.70
2018-10-03T00:56:27.576Z,9.60
2018-10-03T00:57:27.576Z,8.70
2018-10-03T00:58:27.567Z,13.50
2018-10-03T00:59:27.564Z,9.10
2018-10-03T01:00:27.556Z,7.80
2018-10-03T01:01:27.545Z,9.60
2018-10-03T01:02:27.540Z,8.20
2018-10-03T01:03:27.534Z,9.40
2018-10-03T01:04:27.528Z,8.50
2018-10-03T01:05:27.526Z,9.60
2018-10-03T01:06:27.519Z,9.80
2018-10-03T01:07:27.515Z,9.90
2018-10-03T01:08:27.512Z,7.60
2018-10-03T01:09:27.497Z,9.20
2018-10-03T01:10:27.491Z,8.80
2018-10-03T01:11:27.495Z,7.00
2018-10-03T01:12:27.539Z,9.60
2018-10-03T01:13:27.473Z,10.10
2018-10-03T01:14:27.468Z,9.30
2018-10-03T01:15:27.462Z,11.20
2018-10-03T01:16:27.454Z,9.00
2018-10-03T01:17:27.453Z,8.30
2018-10-03T01:18:27.447Z,10.60
2018-10-03T01:19:27.445Z,9.50
2018-10-03T01:20:27.434Z,7.40
2018-10-03T01:21:27.424Z,8.50
2018-10-03T01:22:27.418Z,9.70
2018-10-03T01:23:27.414Z,10.10
2018-10-03T01:24:27.407Z,9.60
2018-10-03T01:25:27.405Z,6.30
2018-10-03T01:26:27.400Z,9.00
2018-10-03T01:27:27.390Z,6.90
2018-10-03T01:28:27.383Z,7.30
2018-10-03T01:29:27.381Z,10.10
2018-10-03T01:30:27.375Z,10.40
2018-10-03T01:31:27.368Z,9.30
2018-10-03T01:32:27.361Z,10.20
2018-10-03T01:33:27.352Z,9.00
2018-10-03T01:34:27.345Z,9.40
2018-10-03T01:35:27.340Z,10.50
2018-10-03T01:36:27.333Z,8.00
2018-10-03T01:37:27.330Z,11.30
2018-10-03T01:38:27.464Z,8.70
2018-10-03T01:39:27.323Z,12.60
2018-10-03T01:40:27.313Z,8.80
2018-10-03T01:41:27.306Z,10.50
2018-10-03T01:42:27.302Z,9.00
2018-10-03T01:43:27.296Z,8.40
2018-10-03T01:44:27.289Z,10.90
2018-10-03T01:45:27.278Z,8.30
2018-10-03T01:46:27.273Z,9.80
2018-10-03T01:47:27.266Z,8.10
2018-10-03T01:48:27.260Z,9.20
2018-10-03T01:49:27.257Z,8.00
2018-10-03T01:50:27.251Z,10.70
2018-10-03T01:51:27.243Z,8.10
2018-10-03T01:52:27.235Z,8.30
2018-10-03T01:53:27.233Z,8.00
2018-10-03T01:54:27.228Z,10.20
2018-10-03T01:55:27.221Z,9.90
2018-10-03T01:56:27.214Z,8.40
2018-10-03T01:57:27.206Z,10.20
2018-10-03T01:58:27.199Z,10.60
2018-10-03T01:59:27.202Z,11.40
2018-10-03T02:00:27.188Z,10.30
2018-10-03T02:01:27.182Z,9.80
2018-10-03T02:02:27.174Z,7.90
2018-10-03T02:03:27.167Z,8.60
2018-10-03T02:04:27.161Z,10.00
2018-10-03T02:05:27.209Z,9.70
2018-10-03T02:06:27.154Z,12.10
2018-10-03T02:07:27.148Z,13.80
2018-10-03T02:08:27.141Z,9.30
2018-10-03T02:09:27.131Z,11.60
2018-10-03T02:10:27.128Z,9.20
2018-10-03T02:11:27.117Z,10.50
2018-10-03T02:12:27.113Z,11.00
2018-10-03T02:13:27.109Z,11.00
2018-10-03T02:14:27.102Z,10.00
2018-10-03T02:15:27.092Z,12.00
2018-10-03T02:16:27.088Z,8.40
2018-10-03T02:17:27.084Z,8.30
2018-10-03T02:18:27.078Z,9.30
2018-10-03T02:19:27.074Z,10.20
2018-10-03T02:20:27.066Z,12.40
2018-10-03T02:21:27.058Z,7.90
2018-10-03T02:22:27.050Z,9.80
2018-10-03T02:23:27.044Z,9.50
2018-10-03T02:24:27.038Z,10.10
2018-10-03T02:25:27.036Z,9.30
2018-10-03T02:26:27.030Z,12.70
2018-10-03T02:27:27.024Z,8.20
2018-10-03T02:28:27.017Z,12.90
2018-10-03T02:29:27.007Z,10.80
2018-10-03T02:30:27.001Z,9.40
2018-10-03T02:31:26.999Z,12.50
2018-10-03T02:32:26.991Z,11.90
2018-10-03T02:33:26.982Z,10.50
2018-10-03T02:34:26.979Z,12.50
2018-10-03T02:35:26.971Z,14.00
2018-10-03T02:36:26.970Z,10.80
2018-10-03T02:37:27.027Z,11.40
2018-10-03T02:38:26.957Z,11.00
2018-10-03T02:39:26.955Z,9.60
2018-10-03T02:40:26.944Z,8.90
2018-10-03T02:41:26.932Z,11.70
2018-10-03T02:42:26.937Z,12.00
2018-10-03T02:43:26.924Z,11.80
2018-10-03T02:44:26.914Z,11.20
2018-10-03T02:45:26.914Z,10.40
2018-10-03T02:46:26.907Z,14.50
2018-10-03T02:47:26.897Z,14.80
2018-10-03T02:48:26.894Z,14.00
2018-10-03T02:49:26.892Z,11.90
2018-10-03T02:50:26.883Z,14.60
2018-10-03T02:51:26.877Z,14.40
2018-10-03T02:52:26.874Z,10.90
2018-10-03T02:53:26.865Z,12.90
2018-10-03T02:54:26.858Z,15.70
2018-10-03T02:55:26.847Z,12.60
2018-10-03T02:56:26.843Z,16.80
2018-10-03T02:57:26.843Z,19.20
2018-10-03T02:58:26.834Z,16.00
2018-10-03T02:59:26.830Z,19.30
2018-10-03T03:00:26.828Z,17.80
2018-10-03T03:01:26.838Z,17.90
2018-10-03T03:02:26.806Z,17.10
2018-10-03T03:03:26.806Z,15.90
2018-10-03T03:04:26.799Z,15.70
2018-10-03T03:05:26.794Z,18.40
2018-10-03T03:06:26.793Z,16.60
2018-10-03T03:07:26.773Z,18.90
2018-10-03T03:08:26.783Z,18.50
2018-10-03T03:09:26.769Z,21.60
2018-10-03T03:10:26.766Z,20.10
2018-10-03T03:11:26.755Z,20.40
2018-10-03T03:12:26.747Z,27.10
2018-10-03T03:13:26.736Z,21.10
2018-10-03T03:14:26.730Z,24.70
2018-10-03T03:15:26.724Z,22.90
2018-10-03T03:16:26.723Z,25.60
2018-10-03T03:17:26.717Z,22.20
2018-10-03T03:18:26.711Z,22.00
2018-10-03T03:19:26.700Z,20.40
2018-10-03T03:20:26.692Z,27.80
2018-10-03T03:21:26.696Z,24.10
2018-10-03T03:22:26.688Z,23.40
2018-10-03T03:23:26.679Z,23.10
2018-10-03T03:24:26.672Z,27.80
2018-10-03T03:25:26.664Z,24.60
2018-10-03T03:26:26.658Z,26.20
2018-10-03T03:27:26.650Z,28.10
2018-10-03T03:28:26.643Z,24.10
2018-10-03T03:29:26.642Z,24.20
2018-10-03T03:30:26.635Z,28.10
2018-10-03T03:31:26.631Z,24.50
2018-10-03T03:32:26.623Z,26.50
2018-10-03T03:33:26.622Z,26.70
2018-10-03T03:34:26.612Z,23.40
2018-10-03T03:35:26.606Z,22.80
2018-10-03T03:36:26.601Z,23.90
2018-10-03T03:37:26.588Z,24.40
2018-10-03T03:38:26.583Z,26.20
2018-10-03T03:39:26.577Z,25.60
2018-10-03T03:40:26.571Z,25.50
2018-10-03T03:41:26.568Z,25.20
2018-10-03T03:42:26.561Z,25.60
2018-10-03T03:43:26.559Z,23.30
2018-10-03T03:44:26.549Z,25.10
2018-10-03T03:45:26.539Z,27.50
2018-10-03T03:46:26.533Z,23.40
2018-10-03T03:47:26.530Z,26.10
2018-10-03T03:48:26.521Z,27.40
2018-10-03T03:49:26.522Z,26.10
2018-10-03T03:50:26.515Z,23.40
2018-10-03T03:51:26.504Z,25.20
2018-10-03T03:52:26.497Z,28.30
2018-10-03T03:53:26.502Z,27.30
2018-10-03T03:54:26.490Z,26.60
2018-10-03T03:55:26.483Z,25.10
2018-10-03T03:56:26.477Z,22.70
2018-10-03T03:57:26.466Z,26.00
2018-10-03T03:58:26.515Z,25.50
2018-10-03T03:59:26.453Z,25.20
2018-10-03T04:00:26.446Z,22.00
2018-10-03T04:01:26.449Z,22.00
2018-10-03T04:02:26.440Z,25.90
2018-10-03T04:03:26.434Z,25.90
2018-10-03T04:04:26.426Z,21.90
2018-10-03T04:05:26.415Z,27.80
2018-10-03T04:06:26.410Z,24.70
2018-10-03T04:07:26.408Z,24.90
2018-10-03T04:08:26.401Z,22.40
2018-10-03T04:09:26.392Z,30.00
2018-10-03T04:10:26.392Z,25.80
2018-10-03T04:11:26.379Z,27.10
2018-10-03T04:12:26.370Z,26.60
2018-10-03T04:13:26.370Z,25.90
2018-10-03T04:14:26.365Z,25.30
2018-10-03T04:15:26.358Z,25.70
2018-10-03T04:16:26.353Z,26.30
2018-10-03T04:17:26.340Z,30.00
2018-10-03T04:18:26.334Z,25.80
2018-10-03T04:19:26.327Z,26.20
2018-10-03T04:20:26.325Z,29.70
2018-10-03T04:21:26.317Z,29.40
2018-10-03T04:22:26.314Z,26.00
2018-10-03T04:23:26.302Z,25.30
2018-10-03T04:24:26.294Z,26.00
2018-10-03T04:25:26.292Z,26.30
2018-10-03T04:26:26.287Z,30.90
2018-10-03T04:27:26.281Z,26.90
2018-10-03T04:28:26.276Z,23.00
2018-10-03T04:29:26.264Z,24.10
2018-10-03T04:30:26.257Z,26.50
2018-10-03T04:31:26.254Z,23.80
2018-10-03T04:32:26.247Z,23.10
2018-10-03T04:33:26.244Z,28.00
2018-10-03T04:34:26.236Z,23.20
2018-10-03T04:35:26.239Z,26.90
2018-10-03T04:36:26.225Z,23.00
2018-10-03T04:37:26.213Z,24.10
2018-10-03T04:38:26.210Z,22.30
2018-10-03T04:39:26.205Z,22.60
2018-10-03T04:40:26.198Z,24.50
2018-10-03T04:41:26.189Z,22.30
2018-10-03T04:42:26.183Z,22.70
2018-10-03T04:43:26.178Z,23.50
2018-10-03T04:44:26.173Z,25.30
2018-10-03T04:45:26.169Z,26.40
2018-10-03T04:46:26.164Z,24.10
2018-10-03T04:47:26.158Z,25.20
2018-10-03T04:48:26.151Z,26.60
2018-10-03T04:49:26.146Z,22.10
2018-10-03T04:50:26.136Z,20.30
2018-10-03T04:51:26.130Z,23.30
2018-10-03T04:52:26.122Z,24.50
2018-10-03T04:53:26.120Z,26.70
2018-10-03T04:54:26.114Z,26.70
2018-10-03T04:55:26.105Z,20.70
2018-10-03T04:56:26.098Z,28.10
2018-10-03T04:57:26.097Z,23.40
2018-10-03T04:58:26.091Z,28.60
2018-10-03T04:59:26.085Z,23.50
2018-10-03T05:00:26.079Z,25.90
2018-10-03T05:01:26.068Z,24.50
2018-10-03T05:02:26.061Z,24.50
2018-10-03T05:03:26.055Z,23.10
2018-10-03T05:04:26.050Z,25.30
2018-10-03T05:05:26.049Z,25.70
2018-10-03T05:06:26.044Z,25.70
2018-10-03T05:07:26.036Z,22.10
2018-10-03T05:08:26.029Z,26.50
2018-10-03T05:09:26.018Z,25.80
2018-10-03T05:10:26.014Z,21.40
2018-10-03T05:11:26.105Z,24.70
2018-10-03T05:12:26.005Z,22.20
2018-10-03T05:13:25.994Z,24.70
2018-10-03T05:14:25.987Z,21.40
2018-10-03T05:15:25.980Z,23.20
2018-10-03T05:16:25.974Z,25.20
2018-10-03T05:17:25.976Z,24.80
2018-10-03T05:18:25.966Z,23.20
2018-10-03T05:19:25.961Z,20.60
2018-10-03T05:20:25.952Z,21.10
2018-10-03T05:21:25.941Z,24.60
2018-10-03T05:22:25.935Z,20.00
2018-10-03T05:23:25.932Z,21.80
2018-10-03T05:24:25.935Z,22.50
2018-10-03T05:25:25.921Z,22.40
2018-10-03T05:26:25.917Z,23.80
2018-10-03T05:27:25.903Z,24.50
2018-10-03T05:28:25.896Z,18.80
2018-10-03T05:29:25.896Z,23.10
2018-10-03T05:30:25.889Z,24.80
2018-10-03T05:31:25.881Z,24.40
2018-10-03T05:32:25.874Z,26.50
2018-10-03T05:33:25.943Z,22.60
2018-10-03T05:34:25.858Z,19.80
2018-10-03T05:35:25.851Z,20.60
2018-10-03T05:36:25.844Z,25.00
2018-10-03T05:37:25.841Z,17.30
2018-10-03T05:38:25.835Z,20.80
2018-10-03T05:39:25.883Z,17.10
2018-10-03T05:40:25.822Z,23.20
2018-10-03T05:41:25.810Z,18.70
2018-10-03T05:42:25.804Z,17.90
2018-10-03T05:43:25.802Z,21.50
2018-10-03T05:44:25.798Z,24.80
2018-10-03T05:45:25.784Z,21.00
2018-10-03T05:46:25.777Z,20.10
2018-10-03T05:47:25.772Z,22.40
2018-10-03T05:48:25.826Z,19.30
2018-10-03T05:49:25.761Z,18.60
2018-10-03T05:50:25.757Z,20.40
2018-10-03T05:51:25.749Z,17.50
2018-10-03T05:52:25.742Z,18.70
2018-10-03T05:53:25.734Z,20.40
2018-10-03T05:54:25.724Z,20.90
2018-10-03T05:55:25.718Z,19.90
2018-10-03T05:56:25.711Z,18.30
2018-10-03T05:57:25.710Z,21.00
2018-10-03T05:58:25.707Z,15.60
2018-10-03T05:59:25.699Z,17.10
2018-10-03T06:00:25.685Z,19.90
2018-10-03T06:01:25.684Z,18.60
2018-10-03T06:02:25.679Z,16.80
2018-10-03T06:03:25.675Z,19.60
2018-10-03T06:04:25.663Z,14.30
2018-10-03T06:05:25.654Z,18.80
2018-10-03T06:06:25.650Z,13.90
2018-10-03T06:07:25.640Z,12.90
2018-10-03T06:08:25.632Z,19.80
2018-10-03T06:09:25.631Z,16.90
2018-10-03T06:10:25.626Z,16.80
2018-10-03T06:11:25.620Z,19.40
2018-10-03T06:12:25.613Z,20.00
2018-10-03T06:13:25.601Z,14.00
2018-10-03T06:14:25.595Z,13.80
2018-10-03T06:15:25.595Z,14.70
2018-10-03T06:16:25.593Z,12.70
2018-10-03T06:17:25.577Z,13.40
2018-10-03T06:18:25.626Z,19.90
2018-10-03T06:19:25.564Z,15.70
2018-10-03T06:20:25.558Z,14.90
2018-10-03T06:21:25.556Z,13.80
2018-10-03T06:22:25.552Z,16.80
2018-10-03T06:23:25.546Z,12.90
2018-10-03T06:24:25.539Z,13.00
2018-10-03T06:25:25.532Z,14.60
2018-10-03T06:26:25.522Z,15.60
2018-10-03T06:27:25.533Z,12.50
2018-10-03T06:28:25.555Z,16.60
2018-10-03T06:29:25.512Z,11.30
2018-10-03T06:30:25.505Z,15.10
2018-10-03T06:31:25.495Z,16.00
2018-10-03T06:32:25.488Z,12.70
2018-10-03T06:33:25.573Z,11.00
2018-10-03T06:34:25.482Z,13.30
2018-10-03T06:35:25.476Z,14.40
2018-10-03T06:36:25.470Z,13.60
2018-10-03T06:37:25.463Z,12.20
2018-10-03T06:38:25.456Z,11.00
2018-10-03T06:39:25.547Z,9.00
2018-10-03T06:40:25.511Z,10.90
2018-10-03T06:41:25.489Z,10.80
2018-10-03T06:42:25.439Z,12.90
2018-10-03T06:43:25.438Z,11.00
2018-10-03T06:44:25.430Z,10.40
2018-10-03T06:45:25.451Z,16.20
2018-10-03T06:46:25.427Z,12.60
2018-10-03T06:47:25.417Z,13.30
2018-10-03T06:48:25.412Z,11.90
2018-10-03T06:49:25.409Z,12.10
2018-10-03T06:50:25.399Z,13.30
2018-10-03T06:51:25.395Z,14.20
2018-10-03T06:52:25.390Z,13.80
2018-10-03T06:53:25.390Z,12.60
2018-10-03T06:54:25.392Z,10.80
2018-10-03T06:55:25.385Z,12.30
2018-10-03T06:56:25.380Z,11.00
2018-10-03T06:57:25.373Z,12.90
2018-10-03T06:58:25.370Z,11.60
2018-10-03T06:59:25.368Z,11.20
2018-10-03T07:00:25.366Z,11.20
2018-10-03T07:01:25.368Z,12.60
2018-10-03T07:02:25.367Z,11.20
2018-10-03T07:03:25.360Z,10.20
2018-10-03T07:04:25.356Z,11.20
2018-10-03T07:05:25.361Z,12.30
2018-10-03T07:06:25.359Z,9.80
2018-10-03T07:07:25.356Z,12.00
2018-10-03T07:08:25.354Z,9.80
2018-10-03T07:09:25.349Z,12.50
2018-10-03T07:10:25.348Z,10.70
2018-10-03T07:11:25.348Z,11.10
2018-10-03T07:12:25.346Z,9.60
2018-10-03T07:13:25.351Z,9.70
2018-10-03T07:14:25.354Z,12.00
2018-10-03T07:15:25.349Z,11.10
2018-10-03T07:16:25.352Z,13.10
2018-10-03T07:17:25.342Z,11.60
2018-10-03T07:18:25.344Z,12.80
2018-10-03T07:19:25.345Z,11.60
2018-10-03T07:20:25.348Z,12.50
2018-10-03T07:21:25.340Z,12.80
2018-10-03T07:22:25.338Z,11.90
2018-10-03T07:23:25.337Z,12.70
2018-10-03T07:24:25.339Z,13.20
2018-10-03T07:25:25.340Z,7.20
2018-10-03T07:26:25.340Z,11.40
2018-10-03T07:27:25.339Z,10.00
2018-10-03T07:28:25.337Z,13.70
2018-10-03T07:29:25.332Z,12.20
2018-10-03T07:30:25.332Z,11.30
2018-10-03T07:31:25.333Z,11.90
2018-10-03T07:32:25.337Z,12.20
2018-10-03T07:33:25.335Z,7.80
2018-10-03T07:34:25.335Z,15.00
2018-10-03T07:35:25.331Z,10.40
2018-10-03T07:36:25.332Z,9.10
2018-10-03T07:37:25.338Z,11.80
2018-10-03T07:38:25.339Z,14.70
2018-10-03T07:39:25.340Z,12.90
2018-10-03T07:40:25.341Z,10.00
2018-10-03T07:41:25.339Z,8.40
2018-10-03T07:42:25.341Z,8.40
2018-10-03T07:43:25.340Z,10.60
2018-10-03T07:44:25.343Z,13.80
2018-10-03T07:45:25.350Z,11.60
2018-10-03T07:46:25.351Z,11.30
2018-10-03T07:47:25.352Z,11.30
2018-10-03T07:48:25.353Z,10.30
2018-10-03T07:49:25.352Z,11.40
2018-10-03T07:50:25.358Z,9.70
2018-10-03T07:51:25.360Z,11.00
2018-10-03T07:52:25.361Z,14.40
2018-10-03T07:53:25.412Z,12.60
2018-10-03T07:54:25.375Z,10.40
2018-10-03T07:55:25.363Z,12.70
2018-10-03T07:56:25.551Z,11.90
2018-10-03T07:57:25.369Z,14.10
2018-10-03T07:58:25.369Z,12.70
2018-10-03T07:59:25.375Z,9.70
2018-10-03T08:00:25.372Z,13.50
2018-10-03T08:01:25.370Z,13.00
2018-10-03T08:02:25.370Z,10.80
2018-10-03T08:03:25.371Z,10.90
2018-10-03T08:04:25.373Z,13.90
2018-10-03T08:05:25.379Z,11.50
2018-10-03T08:06:25.385Z,9.50
2018-10-03T08:07:25.378Z,12.70
2018-10-03T08:08:25.380Z,11.80
2018-10-03T08:09:25.386Z,10.60
2018-10-03T08:10:25.388Z,9.70
2018-10-03T08:11:25.393Z,10.00
2018-10-03T08:12:25.395Z,10.60
2018-10-03T08:13:25.394Z,11.40
2018-10-03T08:14:25.397Z,11.10
2018-10-03T08:15:25.403Z,11.20
2018-10-03T08:16:25.405Z,10.30
2018-10-03T08:17:25.465Z,10.10
2018-10-03T08:18:25.414Z,11.00
2018-10-03T08:19:25.419Z,8.80
2018-10-03T08:20:25.422Z,9.10
2018-10-03T08:21:25.422Z,9.60
2018-10-03T08:22:25.425Z,10.80
2018-10-03T08:23:25.433Z,13.10
2018-10-03T08:24:25.520Z,10.80
2018-10-03T08:25:25.436Z,9.40
2018-10-03T08:26:25.439Z,12.00
2018-10-03T08:27:25.441Z,11.20
2018-10-03T08:28:25.445Z,10.90
2018-10-03T08:29:25.451Z,10.30
2018-10-03T08:30:25.456Z,9.20
2018-10-03T08:31:25.460Z,12.30
2018-10-03T08:32:25.529Z,11.80
2018-10-03T08:33:25.583Z,9.40
2018-10-03T08:34:25.473Z,14.00
2018-10-03T08:35:25.465Z,9.40
2018-10-03T08:36:25.468Z,11.40
2018-10-03T08:37:25.476Z,13.00
2018-10-03T08:38:25.479Z,11.80
2018-10-03T08:39:25.476Z,11.10
2018-10-03T08:40:25.479Z,11.70
2018-10-03T08:41:25.486Z,8.90
2018-10-03T08:42:25.489Z,10.50
2018-10-03T08:43:25.491Z,11.80
2018-10-03T08:44:25.492Z,11.60
2018-10-03T08:45:25.511Z,11.00
2018-10-03T08:46:25.493Z,12.10
2018-10-03T08:47:25.497Z,10.60
2018-10-03T08:48:25.498Z,10.40
2018-10-03T08:49:25.507Z,12.00
2018-10-03T08:50:25.509Z,13.50
2018-10-03T08:51:25.513Z,9.00
2018-10-03T08:52:25.514Z,10.00
2018-10-03T08:53:25.512Z,10.60
2018-10-03T08:54:25.515Z,10.10
2018-10-03T08:55:25.522Z,11.90
2018-10-03T08:56:25.523Z,7.60
2018-10-03T08:57:25.520Z,15.80
2018-10-03T08:58:25.735Z,13.00
2018-10-03T08:59:25.527Z,12.00
2018-10-03T09:00:25.527Z,11.40
2018-10-03T09:01:25.533Z,10.10
2018-10-03T09:02:25.537Z,11.80
2018-10-03T09:03:25.538Z,11.20
2018-10-03T09:04:25.537Z,10.80
2018-10-03T09:05:25.537Z,10.20
2018-10-03T09:06:25.537Z,12.60
2018-10-03T09:07:25.540Z,10.50
2018-10-03T09:08:25.541Z,11.30
2018-10-03T09:09:25.546Z,9.90
2018-10-03T09:10:25.548Z,12.30
2018-10-03T09:11:25.547Z,12.40
2018-10-03T09:12:25.545Z,8.20
2018-10-03T09:13:25.551Z,10.90
2018-10-03T09:14:25.552Z,11.70
2018-10-03T09:15:25.554Z,11.30
2018-10-03T09:16:25.554Z,9.50
2018-10-03T09:17:25.550Z,8.20
2018-10-03T09:18:25.551Z,10.30
2018-10-03T09:19:25.552Z,12.60
2018-10-03T09:20:25.552Z,10.80
2018-10-03T09:21:25.612Z,10.10
2018-10-03T09:22:25.558Z,11.00
2018-10-03T09:23:25.557Z,10.80
2018-10-03T09:24:25.558Z,13.30
2018-10-03T09:25:25.554Z,11.40
2018-10-03T09:26:25.553Z,9.40
2018-10-03T09:27:25.559Z,10.80
2018-10-03T09:28:25.651Z,10.50
2018-10-03T09:29:25.554Z,15.10
2018-10-03T09:30:25.555Z,10.60
2018-10-03T09:31:25.553Z,11.00
2018-10-03T09:32:25.553Z,11.20
2018-10-03T09:33:25.559Z,11.40
2018-10-03T09:34:25.559Z,8.90
2018-10-03T09:35:25.560Z,11.30
2018-10-03T09:36:25.557Z,11.90
2018-10-03T09:37:25.553Z,14.80
2018-10-03T09:38:25.553Z,9.90
2018-10-03T09:39:25.613Z,11.20
2018-10-03T09:40:25.554Z,14.40
2018-10-03T09:41:25.558Z,10.00
2018-10-03T09:42:25.559Z,9.40
2018-10-03T09:43:25.556Z,12.00
2018-10-03T09:44:25.557Z,9.90
2018-10-03T09:45:25.561Z,11.70
2018-10-03T09:46:25.561Z,11.50
2018-10-03T09:47:25.563Z,11.70
2018-10-03T09:48:25.562Z,11.60
2018-10-03T09:49:25.558Z,10.00
2018-10-03T09:50:25.561Z,10.60
2018-10-03T09:51:25.560Z,14.40
2018-10-03T09:52:25.559Z,12.30
2018-10-03T09:53:25.566Z,10.70
2018-10-03T09:54:25.569Z,17.60
2018-10-03T09:55:25.566Z,11.10
2018-10-03T09:56:25.568Z,10.80
2018-10-03T09:57:25.565Z,12.00
2018-10-03T09:58:25.564Z,9.80
2018-10-03T09:59:25.570Z,10.30
2018-10-03T10:00:25.681Z,8.60
2018-10-03T10:01:25.570Z,9.50
2018-10-03T10:02:25.572Z,14.70
2018-10-03T10:03:25.573Z,7.60
2018-10-03T10:04:25.575Z,13.50
2018-10-03T10:05:25.582Z,10.00
2018-10-03T10:06:25.585Z,11.20
2018-10-03T10:07:25.585Z,11.40
2018-10-03T10:08:25.588Z,9.60
2018-10-03T10:09:25.587Z,11.50
2018-10-03T10:10:25.683Z,12.10
2018-10-03T10:11:25.711Z,10.00
2018-10-03T10:12:25.593Z,11.90
2018-10-03T10:13:25.599Z,11.80
2018-10-03T10:14:25.617Z,12.80
2018-10-03T10:15:25.603Z,11.00
2018-10-03T10:16:25.601Z,12.40
2018-10-03T10:17:25.609Z,12.20
2018-10-03T10:18:25.611Z,10.70
2018-10-03T10:19:25.617Z,10.30
2018-10-03T10:20:25.620Z,11.50
2018-10-03T10:21:25.614Z,10.00
2018-10-03T10:22:25.616Z,12.20
2018-10-03T10:23:25.620Z,8.70
2018-10-03T10:24:25.620Z,11.50
2018-10-03T10:25:25.627Z,11.80
2018-10-03T10:26:25.630Z,8.70
2018-10-03T10:27:25.634Z,6.90
2018-10-03T10:28:25.635Z,15.00
2018-10-03T10:29:25.633Z,10.80
2018-10-03T10:30:25.637Z,10.60
2018-10-03T10:31:25.645Z,8.30
2018-10-03T10:32:25.769Z,13.20
2018-10-03T10:33:25.644Z,12.70
2018-10-03T10:34:25.649Z,10.30
2018-10-03T10:35:25.650Z,10.00
2018-10-03T10:36:25.653Z,12.60
2018-10-03T10:37:25.658Z,10.60
2018-10-03T10:38:25.663Z,10.20
2018-10-03T10:39:25.679Z,10.90
2018-10-03T10:40:25.793Z,10.70
2018-10-03T10:41:25.730Z,8.50
2018-10-03T10:42:25.669Z,9.90
2018-10-03T10:43:25.713Z,10.30
2018-10-03T10:44:25.679Z,9.20
2018-10-03T10:45:25.685Z,9.60
2018-10-03T10:46:25.689Z,8.50
2018-10-03T10:47:25.688Z,8.60
2018-10-03T10:48:25.691Z,9.30
2018-10-03T10:49:25.701Z,10.50
2018-10-03T10:50:25.816Z,9.40
2018-10-03T10:51:25.717Z,8.60
2018-10-03T10:52:25.710Z,10.60
2018-10-03T10:53:25.710Z,9.60
2018-10-03T10:54:25.715Z,9.60
2018-10-03T10:55:25.718Z,8.50
2018-10-03T10:56:25.724Z,9.50
2018-10-03T10:57:25.732Z,9.10
2018-10-03T10:58:25.735Z,11.20
2018-10-03T10:59:25.767Z,8.40
2018-10-03T11:00:25.747Z,8.30
2018-10-03T11:01:25.744Z,8.30
2018-10-03T11:02:25.750Z,10.10
2018-10-03T11:03:25.760Z,8.50
2018-10-03T11:04:25.765Z,10.40
2018-10-03T11:05:25.771Z,9.80
2018-10-03T11:06:25.792Z,10.00
2018-10-03T11:07:25.774Z,11.40
2018-10-03T11:08:25.785Z,7.80
2018-10-03T11:09:25.789Z,7.20
2018-10-03T11:10:25.794Z,9.70
2018-10-03T11:11:25.798Z,8.70
2018-10-03T11:12:25.802Z,10.40
2018-10-03T11:13:25.802Z,10.40
2018-10-03T11:14:25.825Z,7.00
2018-10-03T11:15:25.813Z,9.20
2018-10-03T11:16:25.815Z,5.70
2018-10-03T11:17:25.823Z,10.50
2018-10-03T11:18:25.830Z,8.30
2018-10-03T11:19:25.826Z,7.30
2018-10-03T11:20:25.840Z,9.20
2018-10-03T11:21:25.842Z,8.80
2018-10-03T11:22:25.843Z,6.00
2018-10-03T11:23:25.912Z,7.70
2018-10-03T11:24:26.067Z,7.10
2018-10-03T11:25:25.847Z,8.20
2018-10-03T11:26:25.850Z,8.60
2018-10-03T11:27:25.853Z,5.90
2018-10-03T11:28:25.857Z,8.20
2018-10-03T11:29:25.865Z,10.30
2018-10-03T11:30:25.869Z,5.80
2018-10-03T11:31:25.869Z,11.30
2018-10-03T11:32:25.874Z,9.20
2018-10-03T11:33:25.871Z,8.30
2018-10-03T11:34:25.873Z,8.80
2018-10-03T11:35:25.880Z,6.20
2018-10-03T11:36:25.880Z,10.10
2018-10-03T11:37:25.881Z,8.20
2018-10-03T11:38:25.928Z,6.60
2018-10-03T11:39:25.891Z,7.30
2018-10-03T11:40:25.887Z,10.40
2018-10-03T11:41:25.892Z,7.80
2018-10-03T11:42:25.894Z,7.70
2018-10-03T11:43:25.898Z,11.90
2018-10-03T11:44:25.897Z,9.90
2018-10-03T11:45:25.893Z,9.00
2018-10-03T11:46:25.896Z,8.10
2018-10-03T11:47:25.905Z,7.30
2018-10-03T11:48:25.899Z,7.00
2018-10-03T11:49:25.905Z,10.20
2018-10-03T11:50:25.963Z,9.10
2018-10-03T11:51:25.904Z,7.30
2018-10-03T11:52:25.903Z,11.60
2018-10-03T11:53:25.909Z,8.30
2018-10-03T11:54:25.912Z,9.10
2018-10-03T11:55:25.913Z,6.30
2018-10-03T11:56:25.915Z,10.10
2018-10-03T11:57:25.911Z,10.10
2018-10-03T11:58:25.912Z,7.90
2018-10-03T11:59:25.930Z,8.70
2018-10-03T12:00:25.916Z,5.60
2018-10-03T12:01:25.925Z,8.00
2018-10-03T12:02:25.922Z,10.30
2018-10-03T12:03:26.054Z,7.10
2018-10-03T12:04:25.924Z,8.00
2018-10-03T12:05:25.919Z,8.10
2018-10-03T12:06:25.959Z,8.80
2018-10-03T12:07:25.926Z,11.20
2018-10-03T12:08:25.925Z,6.90
2018-10-03T12:09:26.031Z,10.30
2018-10-03T12:10:25.922Z,9.10
2018-10-03T12:11:25.924Z,9.90
2018-10-03T12:12:25.925Z,10.20
2018-10-03T12:13:25.928Z,8.60
2018-10-03T12:14:25.928Z,7.30
2018-10-03T12:15:25.930Z,8.90
2018-10-03T12:16:25.928Z,9.70
2018-10-03T12:17:25.929Z,9.90
2018-10-03T12:18:25.923Z,12.10
2018-10-03T12:19:25.923Z,8.30
2018-10-03T12:20:25.922Z,7.50
2018-10-03T12:21:25.926Z,8.80
2018-10-03T12:22:25.926Z,10.00
2018-10-03T12:23:25.923Z,7.90
2018-10-03T12:24:25.922Z,9.90
2018-10-03T12:25:25.927Z,7.10
2018-10-03T12:26:25.927Z,8.90
2018-10-03T12:27:25.928Z,6.90
2018-10-03T12:28:25.929Z,10.60
2018-10-03T12:29:25.923Z,8.50
2018-10-03T12:30:25.922Z,10.30
2018-10-03T12:31:25.922Z,8.80
2018-10-03T12:32:25.921Z,10.70
2018-10-03T12:33:25.970Z,8.00
2018-10-03T12:34:25.929Z,6.70
2018-10-03T12:35:25.927Z,9.60
2018-10-03T12:36:25.926Z,7.60
2018-10-03T12:37:25.920Z,7.10
2018-10-03T12:38:25.920Z,9.50
2018-10-03T12:39:25.926Z,8.30
2018-10-03T12:40:25.924Z,8.60
2018-10-03T12:41:25.919Z,9.40
2018-10-03T12:42:25.919Z,11.90
2018-10-03T12:43:25.919Z,7.50
2018-10-03T12:44:25.917Z,6.00
2018-10-03T12:45:25.921Z,8.20
2018-10-03T12:46:25.923Z,8.00
2018-10-03T12:47:25.919Z,9.00
2018-10-03T12:48:25.918Z,6.80
2018-10-03T12:49:25.913Z,9.40
2018-10-03T12:50:25.913Z,8.30
2018-10-03T12:51:25.913Z,10.20
2018-10-03T12:52:25.910Z,8.00
2018-10-03T12:53:25.915Z,10.50
2018-10-03T12:54:25.915Z,8.40
2018-10-03T12:55:25.910Z,10.20
2018-10-03T12:56:25.910Z,9.50
2018-10-03T12:57:25.916Z,9.90
2018-10-03T12:58:25.911Z,9.40
2018-10-03T12:59:25.910Z,6.90
2018-10-03T13:00:25.907Z,9.50